Time;durP1;ratioP1;P1;durP2;ratioP2;P2;SDS_P1;SDS_P2;PMS_P1;PMS_P2;Temp;Humidity;BMP_temperature;BMP_pressure;BME280_temperature;BME280_humidity;BME280_pressure;Samples;Min_cycle;Max_cycle;Signal;HPM_P1;HPM_P2
2021/10/11 00:02:15;;;;;;;112.30;52.78;;;;;;;1.73;65.27;101305.23;1752001;81;25642;-59
2021/10/11 00:04:42;;;;;;;101.05;50.48;;;;;;;1.70;65.16;101302.48;1751947;81;28117;-59
2021/10/11 00:07:09;;;;;;;103.85;50.65;;;;;;;1.69;65.64;101296.88;1751886;81;25669;-59
2021/10/11 00:09:36;;;;;;;87.20;41.68;;;;;;;1.67;65.64;101293.63;1751937;81;25879;-60
2021/10/11 00:12:06;;;;;;;100.20;48.48;;;;;;;1.68;65.94;101283.23;1751939;81;26691;-60
2021/10/11 00:14:32;;;;;;;;;;;;;;;1.67;65.88;101277.09;1754623;81;25476;-60
2021/10/11 00:16:59;;;;;;;94.83;45.00;;;;;;;1.69;66.61;101279.54;1751973;81;27341;-60
2021/10/11 00:19:27;;;;;;;96.63;49.85;;;;;;;1.68;66.46;101279.23;1751888;81;25672;-60
2021/10/11 00:21:54;;;;;;;92.42;47.93;;;;;;;1.67;66.04;101277.63;1751947;81;25514;-60
2021/10/11 00:24:20;;;;;;;93.72;45.35;;;;;;;1.66;65.99;101278.65;1751944;81;25487;-59
2021/10/11 00:26:47;;;;;;;87.15;44.20;;;;;;;1.64;66.13;101276.73;1752004;81;25522;-60
2021/10/11 00:29:14;;;;;;;95.40;46.13;;;;;;;1.59;66.10;101270.73;1752023;81;27369;-59
2021/10/11 00:31:41;;;;;;;87.22;43.20;;;;;;;1.57;66.28;101273.34;1753812;81;25477;-59
2021/10/11 00:34:08;;;;;;;91.82;44.50;;;;;;;1.55;66.12;101275.39;1752213;81;25611;-59
2021/10/11 00:36:34;;;;;;;90.95;44.00;;;;;;;1.53;66.12;101271.62;1752019;81;25622;-59
2021/10/11 00:39:01;;;;;;;92.35;45.78;;;;;;;1.53;66.18;101265.48;1752104;81;25700;-60
2021/10/11 00:41:31;;;;;;;98.65;47.50;;;;;;;1.51;66.37;101271.56;1752115;81;27957;-59
2021/10/11 00:43:56;;;;;;;94.13;46.65;;;;;;;1.48;66.19;101265.64;1751801;81;25627;-60
2021/10/11 00:46:22;;;;;;;100.72;50.38;;;;;;;1.45;66.26;101270.09;1752110;81;25651;-60
2021/10/11 00:48:49;;;;;;;102.97;49.77;;;;;;;1.44;66.37;101262.31;1752075;81;26625;-60
2021/10/11 00:51:16;;;;;;;96.20;47.30;;;;;;;1.41;66.67;101256.89;1752144;81;25490;-59
2021/10/11 00:53:43;;;;;;;84.83;41.68;;;;;;;1.42;66.70;101258.53;1752108;81;27954;-60
2021/10/11 00:56:10;;;;;;;77.60;39.15;;;;;;;1.40;66.28;101247.81;1751896;81;25979;-59
2021/10/11 00:58:37;;;;;;;78.87;38.65;;;;;;;1.42;66.51;101251.87;1752103;81;25520;-60
2021/10/11 01:01:04;;;;;;;80.03;40.98;;;;;;;1.42;66.83;101243.06;1753935;81;25707;-60
2021/10/11 01:03:30;;;;;;;80.97;38.98;;;;;;;1.42;66.99;101237.20;1752123;81;25713;-59
2021/10/11 01:05:57;;;;;;;80.30;40.90;;;;;;;1.43;67.04;101224.18;1752106;81;27320;-59
2021/10/11 01:08:24;;;;;;;83.67;40.98;;;;;;;1.48;67.17;101224.81;1751954;81;25476;-59
2021/10/11 01:10:51;;;;;;;74.30;38.35;;;;;;;1.48;67.54;101218.98;1752056;81;25695;-59
2021/10/11 01:13:17;;;;;;;84.52;39.95;;;;;;;1.54;67.48;101224.45;1752076;81;25458;-59
2021/10/11 01:15:44;;;;;;;79.20;40.38;;;;;;;1.55;67.27;101219.39;1752142;81;25716;-59
2021/10/11 01:18:11;;;;;;;74.97;38.30;;;;;;;1.56;67.23;101209.03;1752113;81;27330;-59
2021/10/11 01:20:38;;;;;;;76.40;38.00;;;;;;;1.57;67.12;101208.01;1752021;81;25713;-59
2021/10/11 01:23:05;;;;;;;76.35;37.15;;;;;;;1.58;67.08;101200.28;1752099;81;25172;-59
2021/10/11 01:25:31;;;;;;;70.28;34.43;;;;;;;1.58;67.21;101198.95;1752059;81;26220;-59
2021/10/11 01:28:00;;;;;;;73.50;37.35;;;;;;;1.58;66.94;101199.75;1752123;81;25519;-59
2021/10/11 01:30:29;;;;;;;69.90;34.75;;;;;;;1.57;67.10;101198.14;1752064;81;28102;-59
2021/10/11 01:32:55;;;;;;;65.35;32.67;;;;;;;1.56;67.04;101195.17;1751969;81;25755;-60
2021/10/11 01:35:22;;;;;;;63.40;32.53;;;;;;;1.56;67.23;101194.38;1752081;81;25699;-60
2021/10/11 01:37:50;;;;;;;69.87;34.98;;;;;;;1.55;67.34;101188.23;1751964;81;25661;-60
2021/10/11 01:40:20;;;;;;;63.65;33.50;;;;;;;1.57;67.47;101190.67;1752043;81;25478;-60
2021/10/11 01:42:48;;;;;;;65.70;34.20;;;;;;;1.58;67.42;101182.42;1752085;81;27559;-60
2021/10/11 01:45:14;;;;;;;64.05;32.53;;;;;;;1.61;67.35;101179.83;1751974;81;25448;-59
2021/10/11 01:47:41;;;;;;;64.62;32.42;;;;;;;1.62;67.27;101182.80;1752062;81;25510;-59
2021/10/11 01:50:08;;;;;;;62.67;31.40;;;;;;;1.64;67.22;101183.38;1752008;81;25704;-59
2021/10/11 01:52:36;;;;;;;62.67;30.70;;;;;;;1.65;67.38;101175.66;1752081;81;25471;-59
2021/10/11 01:55:06;;;;;;;58.38;30.30;;;;;;;1.67;67.40;101169.60;1751569;81;27438;-58
2021/10/11 01:57:33;;;;;;;56.13;30.82;;;;;;;1.68;67.43;101174.68;1741883;82;25734;-59
2021/10/11 02:00:00;;;;;;;58.02;30.10;;;;;;;1.73;69.17;101168.67;1741961;82;25707;-59
2021/10/11 02:02:27;;;;;;;54.83;30.12;;;;;;;1.77;68.57;101161.86;1741864;82;25627;-59
2021/10/11 02:04:54;;;;;;;55.33;28.55;;;;;;;1.78;68.16;101162.66;1742006;81;25704;-59
2021/10/11 02:07:21;;;;;;;59.10;30.60;;;;;;;1.79;68.03;101158.96;1741927;82;27279;-59
2021/10/11 02:09:48;;;;;;;56.48;29.25;;;;;;;1.81;67.94;101163.01;1741846;82;25537;-59
2021/10/11 02:12:16;;;;;;;51.92;29.48;;;;;;;1.81;67.94;101163.01;1741951;81;25457;-61
2021/10/11 02:14:42;;;;;;;51.88;28.62;;;;;;;1.79;67.95;101160.30;1741919;81;25652;-61
2021/10/11 02:17:09;;;;;;;55.58;28.55;;;;;;;1.82;67.83;101163.31;1741908;82;25507;-60
2021/10/11 02:19:36;;;;;;;53.68;28.87;;;;;;;1.83;67.85;101156.11;1741927;82;27326;-59
2021/10/11 02:22:04;;;;;;;57.43;28.77;;;;;;;1.82;67.93;101153.98;1741853;82;25617;-60
2021/10/11 02:24:30;;;;;;;54.83;28.35;;;;;;;1.84;67.96;101150.55;1741944;82;25504;-60
2021/10/11 02:26:57;;;;;;;55.45;30.77;;;;;;;1.87;68.10;101143.92;1741898;82;25620;-61
2021/10/11 02:29:25;;;;;;;57.27;30.32;;;;;;;1.90;68.24;101142.14;1741932;82;25618;-60
2021/10/11 02:31:52;;;;;;;57.38;28.55;;;;;;;1.91;68.24;101142.45;1741945;82;26937;-60
2021/10/11 02:34:19;;;;;;;56.95;27.80;;;;;;;1.93;68.44;101133.69;1741850;81;25692;-61
2021/10/11 02:36:45;;;;;;;56.90;26.60;;;;;;;1.96;68.49;101123.05;1741889;82;25539;-61
2021/10/11 02:39:12;;;;;;;46.37;26.15;;;;;;;1.99;68.45;101119.42;1741954;81;25967;-60
2021/10/11 02:41:39;;;;;;;55.00;26.62;;;;;;;2.03;68.49;101117.11;1741963;82;25563;-61
2021/10/11 02:44:05;;;;;;;54.70;27.42;;;;;;;2.09;68.49;101111.36;1741871;82;27328;-61
2021/10/11 02:46:32;;;;;;;51.55;28.02;;;;;;;2.13;68.46;101108.50;1741872;81;25463;-61
2021/10/11 02:48:59;;;;;;;50.60;26.77;;;;;;;2.16;68.51;101103.53;1742008;82;25637;-61
2021/10/11 02:51:25;;;;;;;49.45;25.40;;;;;;;2.20;68.49;101101.21;1741843;82;25699;-60
2021/10/11 02:53:52;;;;;;;46.48;24.80;;;;;;;2.22;68.36;101102.58;1742037;82;25493;-61
2021/10/11 02:56:20;;;;;;;48.83;25.68;;;;;;;2.27;68.22;101094.41;1741836;81;27332;-60
2021/10/11 02:58:47;;;;;;;45.95;23.42;;;;;;;2.30;68.33;101086.75;1741799;81;25689;-61
2021/10/11 03:01:14;;;;;;;43.60;23.40;;;;;;;2.34;68.19;101092.43;1741898;82;25640;-61
2021/10/11 03:03:41;;;;;;;54.80;24.25;;;;;;;2.36;67.97;101084.45;1741859;82;26221;-61
2021/10/11 03:06:07;;;;;;;48.05;26.57;;;;;;;2.40;68.09;101081.63;1741936;82;25644;-60
2021/10/11 03:08:35;;;;;;;45.67;23.73;;;;;;;2.43;67.90;101085.17;1741836;82;29421;-60
2021/10/11 03:11:03;;;;;;;48.52;24.72;;;;;;;2.47;67.82;101084.67;1741797;82;25645;-61
2021/10/11 03:13:30;;;;;;;52.13;26.73;;;;;;;2.49;67.70;101086.61;1741903;82;25527;-59
2021/10/11 03:15:57;;;;;;;51.30;27.02;;;;;;;2.53;67.75;101090.42;1741856;82;25646;-58
2021/10/11 03:18:23;;;;;;;60.92;29.95;;;;;;;2.54;67.76;101085.38;1741885;81;25747;-58
2021/10/11 03:20:50;;;;;;;60.35;32.30;;;;;;;2.58;67.55;101083.31;1741891;82;27318;-58
2021/10/11 03:23:18;;;;;;;58.58;30.92;;;;;;;2.60;67.71;101085.75;1741795;82;25702;-61
2021/10/11 03:25:44;;;;;;;61.55;32.80;;;;;;;2.60;67.49;101081.21;1741876;82;25538;-61
2021/10/11 03:28:11;;;;;;;61.90;31.85;;;;;;;2.61;67.38;101079.38;1741853;82;25676;-60
2021/10/11 03:30:38;;;;;;;55.35;28.12;;;;;;;2.61;67.40;101078.04;1741925;82;25497;-60
2021/10/11 03:33:05;;;;;;;54.03;28.98;;;;;;;2.60;67.42;101077.20;1741965;82;27344;-60
2021/10/11 03:35:31;;;;;;;60.38;28.75;;;;;;;2.59;67.33;101074.27;1741784;82;25527;-60
2021/10/11 03:37:58;;;;;;;59.03;29.90;;;;;;;2.59;67.23;101071.59;1741928;82;25520;-58
2021/10/11 03:40:25;;;;;;;50.20;28.25;;;;;;;2.58;67.41;101069.16;1741842;82;25630;-60
2021/10/11 03:42:52;;;;;;;53.80;28.62;;;;;;;2.56;67.17;101063.25;1741870;82;25671;-60
2021/10/11 03:45:19;;;;;;;56.33;27.75;;;;;;;2.53;67.20;101061.84;1741897;82;27338;-61
2021/10/11 03:47:45;;;;;;;50.88;27.60;;;;;;;2.48;67.08;101051.06;1741799;82;25535;-60
2021/10/11 03:50:12;;;;;;;46.77;26.42;;;;;;;2.45;67.17;101052.86;1741875;82;25696;-60
2021/10/11 03:52:39;;;;;;;50.23;25.10;;;;;;;2.42;66.99;101049.34;1741841;82;25626;-60
2021/10/11 03:55:08;;;;;;;47.03;24.82;;;;;;;2.37;67.10;101038.56;1741912;82;25660;-60
2021/10/11 03:57:34;;;;;;;40.52;22.42;;;;;;;2.34;67.05;101039.03;1750055;81;27323;-60
2021/10/11 04:00:01;;;;;;;46.42;22.95;;;;;;;2.29;67.17;101033.05;1751931;81;25627;-60
2021/10/11 04:02:28;;;;;;;46.45;22.52;;;;;;;2.25;67.20;101034.58;1751979;81;25532;-61
2021/10/11 04:04:54;;;;;;;43.28;22.22;;;;;;;2.21;67.26;101034.24;1752110;81;25644;-60
2021/10/11 04:07:21;;;;;;;44.67;21.57;;;;;;;2.17;67.30;101033.61;1752141;81;25452;-60
2021/10/11 04:09:48;;;;;;;40.70;22.07;;;;;;;2.12;67.37;101026.83;1752084;81;27340;-61
2021/10/11 04:12:21;;;;;;;41.37;22.22;;;;;;;2.10;67.41;101028.92;1752070;81;25491;-61
2021/10/11 04:14:52;;;;;;;48.45;23.32;;;;;;;2.04;67.43;101019.47;1751813;81;25470;-61
2021/10/11 04:17:17;;;;;;;42.27;21.25;;;;;;;2.01;67.48;101029.27;1751718;81;25620;-61
2021/10/11 04:19:44;;;;;;;41.68;22.13;;;;;;;1.97;67.51;101020.63;1752135;81;25590;-61
2021/10/11 04:22:10;;;;;;;43.55;23.02;;;;;;;1.93;67.38;101016.81;1752154;81;27491;-60
2021/10/11 04:24:38;;;;;;;46.05;22.58;;;;;;;1.89;67.41;101010.30;1752058;81;25656;-60
2021/10/11 04:27:04;;;;;;;37.63;21.75;;;;;;;1.83;67.29;101014.19;1752079;81;25489;-60
2021/10/11 04:29:31;;;;;;;42.53;23.02;;;;;;;1.78;67.60;101008.74;1752183;81;25636;-61
2021/10/11 04:31:58;;;;;;;49.67;24.30;;;;;;;1.77;67.45;101007.14;1752172;81;25490;-61
2021/10/11 04:34:24;;;;;;;46.48;24.65;;;;;;;1.73;67.63;101001.96;1752082;81;27328;-61
2021/10/11 04:36:51;;;;;;;45.80;24.27;;;;;;;1.69;67.42;101004.81;1751996;81;25708;-61
2021/10/11 04:39:18;;;;;;;40.92;23.18;;;;;;;1.66;67.65;100992.73;1752080;81;25486;-61
2021/10/11 04:41:44;;;;;;;39.53;20.88;;;;;;;1.64;67.98;100994.83;1752061;81;25624;-62
2021/10/11 04:44:11;;;;;;;43.13;21.65;;;;;;;1.62;68.13;101005.45;1752054;81;25588;-61
2021/10/11 04:46:37;;;;;;;41.68;21.80;;;;;;;1.59;68.23;101004.58;1752058;81;27342;-61
2021/10/11 04:49:05;;;;;;;45.43;22.90;;;;;;;1.57;68.08;101004.00;1752004;81;25743;-61
2021/10/11 04:51:31;;;;;;;44.35;23.92;;;;;;;1.54;67.94;101001.27;1752110;81;25635;-59
2021/10/11 04:53:58;;;;;;;39.90;20.50;;;;;;;1.51;68.11;101000.39;1752082;81;26214;-60
2021/10/11 04:56:24;;;;;;;46.18;22.55;;;;;;;1.50;68.27;101001.45;1750018;81;25695;-60
2021/10/11 04:58:51;;;;;;;36.17;20.08;;;;;;;1.47;67.96;100999.23;1741990;82;27944;-63
2021/10/11 05:01:18;;;;;;;41.28;21.85;;;;;;;1.45;68.39;100994.14;1741907;82;25605;-64
2021/10/11 05:03:44;;;;;;;39.15;21.12;;;;;;;1.43;68.42;100984.23;1741966;82;25693;-61
2021/10/11 05:06:12;;;;;;;42.70;21.62;;;;;;;1.40;68.45;100987.35;1741963;82;25721;-62
2021/10/11 05:08:38;;;;;;;43.95;23.20;;;;;;;1.40;68.63;100982.02;1741974;82;25504;-63
2021/10/11 05:11:05;;;;;;;41.68;23.22;;;;;;;1.40;68.74;100983.35;1742076;82;27338;-63
2021/10/11 05:13:33;;;;;;;46.60;23.32;;;;;;;1.38;68.72;100982.77;1741992;82;25463;-62
2021/10/11 05:16:00;;;;;;;39.60;21.45;;;;;;;1.36;68.80;100984.03;1741948;82;25683;-63
2021/10/11 05:18:27;;;;;;;38.85;19.42;;;;;;;1.37;69.10;100992.33;1741874;82;25689;-62
2021/10/11 05:20:57;;;;;;;32.67;18.15;;;;;;;1.36;69.18;100991.50;1741999;81;25749;-62
2021/10/11 05:23:22;;;;;;;36.45;19.25;;;;;;;1.40;69.50;100994.55;1741596;82;27250;-61
2021/10/11 05:25:49;;;;;;;40.25;21.40;;;;;;;1.44;69.35;100998.36;1741869;82;25674;-62
2021/10/11 05:28:16;;;;;;;43.42;20.50;;;;;;;1.44;69.31;100996.50;1742051;82;25490;-63
2021/10/11 05:30:43;;;;;;;34.63;19.37;;;;;;;1.46;69.04;101005.10;1741887;82;25617;-63
2021/10/11 05:33:09;;;;;;;34.88;18.92;;;;;;;1.45;68.83;101007.47;1742010;81;25542;-62
2021/10/11 05:35:37;;;;;;;39.18;21.70;;;;;;;1.41;68.72;101002.81;1741917;82;27402;-63
2021/10/11 05:38:04;;;;;;;35.25;18.92;;;;;;;1.41;68.88;100999.62;1741840;82;25474;-63
2021/10/11 05:40:33;;;;;;;40.65;19.10;;;;;;;1.39;68.87;100988.38;1737117;81;25530;-62
2021/10/11 05:43:00;;;;;;;33.33;18.42;;;;;;;1.38;68.83;100986.77;1741378;82;26207;-63
2021/10/11 05:45:26;;;;;;;34.23;18.77;;;;;;;1.37;68.92;100983.81;1741637;82;25659;-62
2021/10/11 05:47:54;;;;;;;35.95;20.68;;;;;;;1.37;69.17;100979.81;1741530;82;29409;-62
2021/10/11 05:50:21;;;;;;;38.40;19.32;;;;;;;1.36;69.22;100976.84;1741835;81;27162;-63
2021/10/11 05:52:49;;;;;;;37.63;19.85;;;;;;;1.36;69.25;100977.37;1741970;82;25658;-62
2021/10/11 05:55:17;;;;;;;41.35;19.20;;;;;;;1.37;69.55;100981.14;1742057;81;26190;-61
2021/10/11 05:57:44;;;;;;;36.53;19.92;;;;;;;1.42;69.84;100981.80;1748158;81;25534;-61
2021/10/11 06:00:15;;;;;;;37.13;19.27;;;;;;;1.45;69.92;100984.80;1752064;81;28043;-61
2021/10/11 06:02:41;;;;;;;39.80;19.60;;;;;;;1.49;70.18;100980.62;1752107;81;25477;-61
2021/10/11 06:05:08;;;;;;;35.90;19.45;;;;;;;1.54;70.21;100970.60;1752052;81;25546;-61
2021/10/11 06:07:36;;;;;;;40.10;20.77;;;;;;;1.58;70.40;100967.75;1752017;81;26158;-61
2021/10/11 06:10:04;;;;;;;36.73;20.15;;;;;;;1.62;70.44;100968.92;1752045;81;25523;-61
2021/10/11 06:12:31;;;;;;;35.33;20.50;;;;;;;1.68;70.68;100973.84;1752036;81;27428;-61
2021/10/11 06:15:00;;;;;;;35.15;18.98;;;;;;;1.74;70.71;100974.76;1751931;81;25672;-61
2021/10/11 06:17:27;;;;;;;39.18;21.15;;;;;;;1.84;71.50;100976.34;1752136;81;25640;-62
2021/10/11 06:19:53;;;;;;;44.58;20.45;;;;;;;2.02;72.82;100976.70;1751999;81;25700;-61
2021/10/11 06:22:22;;;;;;;34.20;18.25;;;;;;;2.23;72.49;100977.42;1752067;81;25511;-61
2021/10/11 06:24:52;;;;;;;41.25;20.32;;;;;;;2.41;72.82;100971.08;1752010;81;27332;-61
2021/10/11 06:27:18;;;;;;;36.65;20.43;;;;;;;2.74;73.50;100966.07;1752057;81;25675;-62
2021/10/11 06:29:45;;;;;;;37.42;20.32;;;;;;;3.09;73.26;100958.39;1752037;81;25461;-61
2021/10/11 06:32:12;;;;;;;37.85;19.57;;;;;;;3.41;72.92;100953.28;1751962;81;25632;-60
2021/10/11 06:34:40;;;;;;;35.13;20.60;;;;;;;3.76;73.01;100958.84;1752047;81;25524;-60
2021/10/11 06:37:07;;;;;;;36.00;19.85;;;;;;;4.11;71.94;100962.52;1752008;81;27932;-61
2021/10/11 06:39:34;;;;;;;37.13;20.92;;;;;;;4.47;71.28;100963.46;1751878;81;25692;-56
2021/10/11 06:42:00;;;;;;;37.30;21.00;;;;;;;4.84;70.86;100964.11;1752013;81;25477;-53
2021/10/11 06:44:28;;;;;;;41.25;20.25;;;;;;;5.17;68.98;100960.36;1751972;81;25687;-54
2021/10/11 06:46:55;;;;;;;39.50;20.52;;;;;;;5.52;69.08;100960.89;1752041;81;25723;-53
2021/10/11 06:49:23;;;;;;;41.75;21.37;;;;;;;5.94;69.03;100969.43;1751999;81;27971;-54
2021/10/11 06:51:50;;;;;;;44.30;22.55;;;;;;;6.26;67.66;100963.16;1751973;81;25792;-55
2021/10/11 06:54:17;;;;;;;40.08;21.25;;;;;;;6.73;68.04;100964.91;1751954;81;25692;-53
2021/10/11 06:56:43;;;;;;;45.05;23.55;;;;;;;7.27;66.39;100961.70;1751226;81;25652;-54
2021/10/11 06:59:10;;;;;;;38.00;21.75;;;;;;;7.65;64.96;100961.38;1741936;82;25452;-54
2021/10/11 07:01:37;;;;;;;47.85;24.47;;;;;;;7.98;62.86;100959.13;1741910;82;27323;-54
2021/10/11 07:04:04;;;;;;;43.87;23.85;;;;;;;8.23;62.16;100965.75;1741826;82;25702;-53
2021/10/11 07:06:31;;;;;;;45.28;25.65;;;;;;;8.49;61.45;100964.86;1741904;82;25564;-53
2021/10/11 07:08:57;;;;;;;50.20;24.20;;;;;;;8.72;60.59;100953.95;1741834;82;26288;-54
2021/10/11 07:11:24;;;;;;;46.90;23.62;;;;;;;9.11;59.99;100955.81;1741926;82;25686;-54
2021/10/11 07:13:51;;;;;;;41.33;22.45;;;;;;;9.39;59.46;100955.55;1741985;82;27333;-53
2021/10/11 07:16:17;;;;;;;42.70;22.98;;;;;;;9.73;58.23;100956.82;1741813;82;25712;-53
2021/10/11 07:18:44;;;;;;;42.03;22.32;;;;;;;10.06;58.43;100957.53;1741825;82;25682;-54
2021/10/11 07:21:11;;;;;;;37.88;21.27;;;;;;;10.49;57.42;100948.09;1741842;82;25676;-54
2021/10/11 07:23:38;;;;;;;37.10;20.48;;;;;;;10.89;56.78;100945.07;1741937;82;25445;-50
2021/10/11 07:26:08;;;;;;;34.92;21.05;;;;;;;11.28;55.30;100941.19;1741886;82;28011;-54
2021/10/11 07:28:36;;;;;;;38.02;19.92;;;;;;;11.60;54.81;100933.55;1741704;82;25594;-54
2021/10/11 07:31:04;;;;;;;37.80;19.40;;;;;;;11.95;54.14;100928.02;1741887;82;25640;-52
2021/10/11 07:33:30;;;;;;;33.33;19.10;;;;;;;12.29;53.22;100920.52;1741858;82;25703;-54
2021/10/11 07:35:58;;;;;;;31.12;18.52;;;;;;;12.67;52.29;100919.66;1741907;82;25452;-53
2021/10/11 07:38:25;;;;;;;31.10;18.50;;;;;;;12.97;51.09;100917.30;1741833;81;27949;-51
2021/10/11 07:40:53;;;;;;;31.12;17.82;;;;;;;13.28;50.47;100919.27;1741743;82;25559;-52
2021/10/11 07:43:19;;;;;;;35.58;18.57;;;;;;;13.50;49.23;100910.82;1741898;82;25605;-52
2021/10/11 07:45:47;;;;;;;34.03;17.40;;;;;;;13.88;48.87;100913.05;1741851;82;26183;-54
2021/10/11 07:48:15;;;;;;;25.92;17.52;;;;;;;14.17;47.44;100907.81;1741896;82;25538;-48
2021/10/11 07:50:43;;;;;;;31.73;18.10;;;;;;;14.46;46.91;100908.33;1741875;81;27404;-51
2021/10/11 07:53:13;;;;;;;25.92;17.10;;;;;;;14.63;45.75;100908.92;1741854;82;25452;-51
2021/10/11 07:55:39;;;;;;;32.10;18.57;;;;;;;14.58;45.62;100905.77;1741824;82;25700;-48
2021/10/11 07:58:06;;;;;;;28.35;16.60;;;;;;;14.63;45.78;100901.55;1741742;81;25645;-49
2021/10/11 08:00:33;;;;;;;27.17;16.10;;;;;;;14.90;45.32;100899.59;1741901;82;25623;-49
2021/10/11 08:03:00;;;;;;;30.52;16.62;;;;;;;14.92;44.64;100890.54;1741847;82;27310;-50
2021/10/11 08:05:26;;;;;;;29.12;17.60;;;;;;;15.02;44.50;100892.13;1741759;82;25518;-49
2021/10/11 08:07:53;;;;;;;24.92;16.97;;;;;;;15.12;44.79;100884.97;1741968;82;25449;-50
2021/10/11 08:10:19;;;;;;;28.50;17.27;;;;;;;15.47;44.07;100893.00;1741798;82;25619;-50
2021/10/11 08:12:46;;;;;;;29.80;17.40;;;;;;;15.78;44.19;100880.47;1741856;82;25535;-50
2021/10/11 08:15:13;;;;;;;29.82;17.50;;;;;;;16.01;43.42;100878.22;1741852;82;27935;-49
2021/10/11 08:17:40;;;;;;;31.27;17.25;;;;;;;16.32;43.16;100872.94;1741773;82;25511;-51
2021/10/11 08:20:08;;;;;;;33.53;18.07;;;;;;;16.55;42.31;100870.66;1741836;82;25675;-48
2021/10/11 08:22:36;;;;;;;24.35;16.32;;;;;;;16.83;42.36;100871.43;1742081;82;25611;-48
2021/10/11 08:25:05;;;;;;;26.35;16.85;;;;;;;17.01;41.73;100870.72;1741894;82;25677;-48
2021/10/11 08:27:32;;;;;;;23.50;16.62;;;;;;;17.16;40.67;100871.43;1741980;82;27948;-49
2021/10/11 08:29:59;;;;;;;27.55;16.42;;;;;;;17.22;40.23;100867.11;1741773;82;25682;-50
2021/10/11 08:32:35;;;;;;;26.82;16.70;;;;;;;17.39;40.11;100860.63;1741879;82;25526;-48
2021/10/11 08:35:04;;;;;;;28.80;17.30;;;;;;;17.65;39.48;100858.91;1741847;82;25688;-51
2021/10/11 08:37:30;;;;;;;24.32;16.97;;;;;;;17.83;39.03;100856.73;1742090;82;25490;-49
2021/10/11 08:39:57;;;;;;;27.85;16.48;;;;;;;18.04;38.75;100857.97;1741870;82;27299;-48
2021/10/11 08:42:24;;;;;;;26.30;16.55;;;;;;;18.22;38.58;100849.70;1741860;82;25469;-52
2021/10/11 08:44:51;;;;;;;32.80;17.27;;;;;;;18.37;37.96;100843.25;1741842;82;25601;-47
2021/10/11 08:47:19;;;;;;;30.10;16.93;;;;;;;18.37;37.84;100835.04;1741819;81;25619;-47
2021/10/11 08:49:49;;;;;;;26.48;15.60;;;;;;;18.36;37.45;100829.36;1741884;82;25716;-48
2021/10/11 08:52:23;;;;;;;27.80;15.78;;;;;;;18.25;36.56;100831.77;1741987;81;28110;-47
2021/10/11 08:54:53;;;;;;;27.00;16.30;;;;;;;18.08;37.00;100826.01;1741893;82;25636;-48
2021/10/11 08:57:35;;;;;;;25.82;16.85;;;;;;;18.14;37.10;100826.00;1741931;81;25534;-51
2021/10/11 09:00:19;;;;;;;29.98;16.30;;;;;;;18.19;36.63;100826.34;1741976;81;25679;-50
2021/10/11 09:02:58;;;;;;;22.37;15.68;;;;;;;18.25;36.42;100823.56;1742039;82;25474;-65
2021/10/11 09:05:36;;;;;;;23.32;15.32;;;;;;;18.41;36.18;100816.78;1742021;82;28039;-58
2021/10/11 09:08:13;;;;;;;24.55;16.20;;;;;;;18.59;36.41;100815.33;1741938;82;25632;-58
2021/10/11 09:10:56;;;;;;;26.10;15.30;;;;;;;18.53;36.50;100807.71;1741981;81;25680;-58
2021/10/11 09:13:41;;;;;;;24.12;16.35;;;;;;;18.53;36.08;100810.45;1741973;82;26435;-58
2021/10/11 09:16:34;;;;;;;26.93;16.45;;;;;;;18.28;36.59;100811.91;1706821;83;25659;-59
2021/10/11 09:19:29;;;;;;;28.07;17.17;;;;;;;18.48;37.11;100804.06;1706813;84;28230;-59
2021/10/11 09:21:49;;;;;;;22.48;16.60;;;;;;;18.71;35.63;100802.69;1706740;84;25685;-58
2021/10/11 09:24:19;;;;;;;26.00;16.67;;;;;;;18.52;35.35;100793.78;1706823;84;25994;-58
2021/10/11 09:26:49;;;;;;;22.73;15.58;;;;;;;18.64;35.27;100792.33;1706720;84;25616;-58
2021/10/11 09:29:29;;;;;;;24.77;16.32;;;;;;;18.59;34.69;100790.67;1706833;84;25636;-58
2021/10/11 09:32:00;;;;;;;32.67;16.93;;;;;;;18.43;34.68;100781.03;1706875;84;28071;-58
2021/10/11 09:34:27;;;;;;;30.72;16.73;;;;;;;18.34;34.96;100781.78;1706757;84;25613;-58
2021/10/11 09:37:08;;;;;;;25.70;17.70;;;;;;;18.56;35.12;100782.33;1706828;84;25578;-58
2021/10/11 09:39:38;;;;;;;30.62;17.73;;;;;;;18.83;34.95;100778.78;1706789;82;25688;-58
2021/10/11 09:42:13;;;;;;;27.13;15.83;;;;;;;19.10;35.28;100770.80;1706871;84;25654;-58
2021/10/11 09:44:52;;;;;;;23.42;15.50;;;;;;;19.41;34.06;100771.92;1706839;84;27964;-58
2021/10/11 09:50:04;;;;;;;29.60;15.03;;;;;;;19.23;33.74;100764.65;1706854;84;25787;-57
2021/10/11 09:52:31;;;;;;;25.90;15.15;;;;;;;19.33;33.34;100759.98;1712015;82;25746;-57
2021/10/11 09:54:58;;;;;;;23.62;14.38;;;;;;;19.38;32.77;100756.97;1741982;82;25474;-57
2021/10/11 09:57:25;;;;;;;30.27;13.03;;;;;;;19.59;32.36;100751.14;1741952;82;27314;-56
2021/10/11 09:59:53;;;;;;;26.20;13.43;;;;;;;19.94;32.40;100750.34;1751405;80;25725;-56
2021/10/11 10:02:25;;;;;;;18.87;11.57;;;;;;;20.07;30.99;100754.30;1752034;81;25696;-56
2021/10/11 10:04:52;;;;;;;23.67;12.55;;;;;;;19.91;30.55;100753.02;1751490;81;32547;-56
2021/10/11 10:07:19;;;;;;;26.50;11.53;;;;;;;20.32;30.79;100752.04;1752058;81;25513;-56
2021/10/11 10:09:49;;;;;;;22.22;11.68;;;;;;;20.63;30.23;100746.14;1751988;81;27321;-56
2021/10/11 10:12:16;;;;;;;21.00;11.00;;;;;;;20.97;29.70;100745.71;1751948;81;25458;-56
2021/10/11 10:14:43;;;;;;;17.52;11.57;;;;;;;21.04;29.44;100743.66;1752025;81;25501;-56
2021/10/11 10:17:10;;;;;;;21.23;13.03;;;;;;;21.33;29.64;100740.73;1752003;81;26208;-55
2021/10/11 10:19:40;;;;;;;20.35;12.28;;;;;;;21.67;29.51;100736.70;1752014;81;25723;-56
2021/10/11 10:22:16;;;;;;;18.05;11.28;;;;;;;21.84;29.18;100732.58;1752020;81;28063;-56
2021/10/11 10:24:43;;;;;;;23.60;12.68;;;;;;;21.81;28.75;100724.50;1752057;81;25455;-55
2021/10/11 10:27:17;;;;;;;24.67;11.68;;;;;;;21.89;28.38;100722.61;1752039;81;25527;-55
2021/10/11 10:29:49;;;;;;;22.35;11.30;;;;;;;22.16;28.26;100717.01;1752022;81;25631;-53
2021/10/11 10:32:19;;;;;;;19.85;10.75;;;;;;;22.62;28.30;100713.14;1752054;81;25637;-55
2021/10/11 10:34:59;;;;;;;21.02;12.50;;;;;;;23.12;28.12;100717.09;1752029;81;27308;-56
2021/10/11 10:37:35;;;;;;;23.05;11.95;;;;;;;23.20;27.11;100724.02;1691426;84;26138;-56
2021/10/11 10:40:14;;;;;;;22.42;11.10;;;;;;;23.63;26.72;100721.48;1692614;84;25980;-55
2021/10/11 10:42:41;;;;;;;;;;;;;;;24.07;26.31;100718.31;1695160;84;25815;-56
2021/10/11 10:45:22;;;;;;;24.65;11.20;;;;;;;24.07;25.34;100714.95;1692668;84;25523;-56
2021/10/11 10:47:50;;;;;;;24.82;11.65;;;;;;;24.10;26.05;100706.48;1692641;84;27984;-56
2021/10/11 10:50:22;;;;;;;25.52;11.08;;;;;;;24.23;25.74;100712.63;1692589;84;25668;-56
2021/10/11 10:52:56;;;;;;;26.93;10.50;;;;;;;24.20;25.79;100713.41;1692675;84;25760;-56
2021/10/11 10:55:24;;;;;;;23.98;11.35;;;;;;;24.28;25.33;100706.50;1692633;84;25820;-55
2021/10/11 10:58:01;;;;;;;21.35;11.63;;;;;;;24.51;24.88;100703.37;1692664;84;25654;-56
2021/10/11 11:00:28;;;;;;;18.40;10.35;;;;;;;24.41;24.37;100699.41;1700163;84;28121;-55
2021/10/11 11:02:55;;;;;;;24.95;10.28;;;;;;;24.57;24.33;100691.55;1700045;84;25688;-55
2021/10/11 11:05:25;;;;;;;27.65;10.78;;;;;;;24.71;24.36;100689.37;1700150;84;25602;-56
2021/10/11 11:07:54;;;;;;;19.75;9.58;;;;;;;24.77;24.46;100685.03;1700126;84;25638;-55
2021/10/11 11:10:27;;;;;;;15.98;9.70;;;;;;;24.83;23.90;100679.09;1700285;84;25723;-55
2021/10/11 11:13:01;;;;;;;23.32;9.90;;;;;;;24.92;23.31;100676.09;1700167;84;27322;-55
2021/10/11 11:15:34;;;;;;;18.55;8.95;;;;;;;24.96;23.13;100674.70;1747299;81;25668;-55
2021/10/11 11:18:06;;;;;;;19.75;9.63;;;;;;;24.78;21.81;100664.46;1760067;81;25716;-56
2021/10/11 11:20:36;;;;;;;16.15;8.73;;;;;;;24.31;22.42;100666.42;1760001;81;26304;-55
2021/10/11 11:23:13;;;;;;;20.62;9.30;;;;;;;24.46;22.95;100661.69;1760097;81;25520;-56